Time;durP1;ratioP1;P1;durP2;ratioP2;P2;SDS_P1;SDS_P2;PMS_P1;PMS_P2;Temp;Humidity;BMP_temperature;BMP_pressure;BME280_temperature;BME280_humidity;BME280_pressure;Samples;Min_cycle;Max_cycle;Signal;HPM_P1;HPM_P2
2021/07/24 00:00:37;;;;;;;10.18;5.54;;;;;;;21.42;50.81;99204.56;335870;107;2557008;-69
2021/07/24 00:01:51;;;;;;;9.87;5.73;;;;;;;21.50;51.05;99201.19;401142;101;2074088;-69
2021/07/24 00:02:57;;;;;;;9.37;4.91;;;;;;;21.37;50.96;99202.64;383310;103;1961821;-71
2021/07/24 00:04:10;;;;;;;10.02;5.69;;;;;;;21.43;51.17;99201.52;390535;104;1986980;-69
2021/07/24 00:05:18;;;;;;;9.67;5.39;;;;;;;21.32;51.29;99207.37;367228;106;2872969;-70
2021/07/24 00:06:42;;;;;;;10.02;5.49;;;;;;;21.44;50.89;99202.36;376431;106;1962099;-71
2021/07/24 00:07:55;;;;;;;10.06;5.47;;;;;;;21.52;50.97;99207.22;377539;108;1987026;-71
2021/07/24 00:09:04;;;;;;;10.53;5.27;;;;;;;21.40;50.73;99206.78;360544;112;1963003;-69
2021/07/24 00:10:14;;;;;;;10.12;6.16;;;;;;;21.57;50.87;99209.92;352672;106;2489079;-71
2021/07/24 00:11:20;;;;;;;12.74;5.85;;;;;;;21.43;50.68;99209.75;328199;111;1974012;-71
2021/07/24 00:12:44;;;;;;;10.81;5.36;;;;;;;21.38;50.94;99208.98;366339;109;1962146;-71
2021/07/24 00:13:56;;;;;;;11.12;5.67;;;;;;;21.40;51.16;99207.59;392191;104;1962032;-70
2021/07/24 00:15:01;;;;;;;9.56;4.47;;;;;;;21.26;51.21;99210.16;362748;109;1964086;-68
2021/07/24 00:16:06;;;;;;;9.91;5.14;;;;;;;21.24;51.42;99217.86;371590;107;1961977;-70
2021/07/24 00:17:18;;;;;;;10.18;5.85;;;;;;;21.37;51.33;99212.82;395364;104;1987002;-71
2021/07/24 00:18:25;;;;;;;9.27;5.68;;;;;;;21.24;51.52;99214.30;376989;107;1961970;-71
2021/07/24 00:19:37;;;;;;;8.99;5.23;;;;;;;21.32;51.73;99210.93;396954;104;1962008;-71
2021/07/24 00:20:49;;;;;;;10.02;5.41;;;;;;;21.33;51.72;99209.84;397727;104;1985977;-70
2021/07/24 00:21:54;;;;;;;13.86;5.52;;;;;;;21.24;51.63;99215.11;378674;105;1961994;-70
2021/07/24 00:22:59;;;;;;;9.24;5.71;;;;;;;21.23;51.69;99218.98;378610;105;1962035;-70
2021/07/24 00:24:05;;;;;;;8.61;5.53;;;;;;;21.17;51.72;99214.64;378884;105;1961997;-71
2021/07/24 00:25:18;;;;;;;10.59;5.56;;;;;;;21.31;51.96;99214.80;338325;104;2199998;-72
2021/07/24 00:26:30;;;;;;;10.73;6.01;;;;;;;21.34;52.03;99214.22;390398;104;2072055;-70
2021/07/24 00:27:53;;;;;;;8.58;4.74;;;;;;;21.24;51.73;99214.30;355823;106;1961966;-72
2021/07/24 00:29:00;;;;;;;9.14;5.01;;;;;;;21.23;51.87;99215.42;361799;106;1961959;-72
2021/07/24 00:30:06;;;;;;;8.88;5.57;;;;;;;21.24;51.75;99214.30;376225;105;1962065;-71
2021/07/24 00:31:19;;;;;;;9.36;5.28;;;;;;;21.36;51.95;99219.44;340156;104;2246922;-71
2021/07/24 00:32:27;;;;;;;10.32;5.39;;;;;;;21.21;51.95;99212.12;374258;106;1962013;-71
2021/07/24 00:33:33;;;;;;;9.87;5.88;;;;;;;21.20;51.93;99214.06;374020;107;1961950;-71
2021/07/24 00:34:39;;;;;;;9.83;5.34;;;;;;;21.21;51.93;99212.95;327490;106;2788972;-72
2021/07/24 00:35:51;;;;;;;8.92;5.57;;;;;;;21.31;52.08;99220.29;393788;103;1963073;-72
2021/07/24 00:36:58;;;;;;;10.48;6.02;;;;;;;21.19;52.11;99217.90;373052;107;1961805;-72
2021/07/24 00:38:10;;;;;;;10.52;5.34;;;;;;;21.25;52.42;99215.95;330519;103;2331005;-71
2021/07/24 00:39:16;;;;;;;9.23;5.14;;;;;;;21.10;52.47;99216.08;373960;105;1962041;-71
2021/07/24 00:40:44;;;;;;;10.19;5.16;;;;;;;21.08;52.40;99213.59;359823;109;2870038;-69
2021/07/24 00:41:59;;;;;;;9.86;5.31;;;;;;;21.18;52.66;99213.52;349313;106;2043016;-69
2021/07/24 00:43:13;;;;;;;9.02;5.52;;;;;;;21.21;52.42;99217.63;391701;104;1986138;-70
2021/07/24 00:44:24;;;;;;;9.86;5.17;;;;;;;21.07;52.47;99207.30;376329;107;1961903;-71
2021/07/24 00:45:34;;;;;;;9.67;5.41;;;;;;;21.00;52.71;99216.95;365767;109;1962000;-71
2021/07/24 00:46:49;;;;;;;11.32;5.62;;;;;;;21.07;53.07;99215.53;338858;106;2180032;-71
2021/07/24 00:47:56;;;;;;;11.27;5.69;;;;;;;20.93;52.86;99211.80;369320;108;1962082;-70
2021/07/24 00:49:13;;;;;;;13.42;5.43;;;;;;;21.02;52.92;99207.33;396279;104;1987801;-71
2021/07/24 00:50:23;;;;;;;10.62;5.38;;;;;;;20.90;53.20;99215.09;379989;105;1961973;-70
2021/07/24 00:51:48;;;;;;;12.19;6.41;;;;;;;20.88;53.29;99216.48;381088;105;1964015;-72
2021/07/24 00:53:10;;;;;;;10.57;5.54;;;;;;;20.98;53.17;99210.92;394539;104;1986979;-70
2021/07/24 00:54:08;;;;;;;8.92;5.19;;;;;;;20.88;53.40;99221.97;314752;107;2209958;-71
2021/07/24 00:55:20;;;;;;;9.70;5.41;;;;;;;20.94;53.79;99215.36;392982;101;2073993;-70
2021/07/24 00:56:28;;;;;;;9.91;5.12;;;;;;;20.79;53.64;99213.53;378118;104;1963013;-71
2021/07/24 00:57:44;;;;;;;10.96;5.45;;;;;;;20.90;53.93;99212.34;387979;106;1972970;-70
2021/07/24 00:58:49;;;;;;;10.67;4.98;;;;;;;20.76;53.68;99211.36;312199;109;2156015;-71
2021/07/24 01:00:15;;;;;;;9.41;5.19;;;;;;;20.75;53.71;99207.80;362265;110;1962942;-70
2021/07/24 01:01:20;;;;;;;8.68;4.89;;;;;;;20.70;53.97;99205.08;356910;108;1961989;-70
2021/07/24 01:02:26;;;;;;;10.26;5.17;;;;;;;20.69;54.05;99200.67;363778;110;1962088;-70
2021/07/24 01:03:39;;;;;;;9.26;4.99;;;;;;;20.68;54.25;99207.28;394923;103;1985961;-70
2021/07/24 01:04:51;;;;;;;10.86;5.98;;;;;;;20.74;54.26;99210.81;381636;106;2072883;-70
2021/07/24 01:06:16;;;;;;;9.59;5.36;;;;;;;20.58;54.58;99216.38;315589;109;2105040;-70
2021/07/24 01:07:24;;;;;;;10.32;5.05;;;;;;;20.57;54.36;99212.02;363372;109;1961989;-70
2021/07/24 01:08:37;;;;;;;10.69;5.70;;;;;;;20.67;54.74;99210.30;378200;103;1989076;-69
2021/07/24 01:09:43;;;;;;;10.89;5.34;;;;;;;20.54;54.65;99200.80;377536;106;1961976;-68
2021/07/24 01:10:56;;;;;;;10.03;5.87;;;;;;;20.59;55.25;99203.52;391844;104;2893944;-72
2021/07/24 01:12:03;;;;;;;11.03;5.52;;;;;;;20.49;54.72;99214.50;379665;105;1961852;-69
2021/07/24 01:13:28;;;;;;;9.77;5.17;;;;;;;20.40;54.81;99201.38;327697;107;2115028;-71
2021/07/24 01:14:34;;;;;;;13.21;5.50;;;;;;;20.43;54.90;99208.23;367476;107;1961948;-70
2021/07/24 01:15:48;;;;;;;10.61;5.59;;;;;;;20.49;55.14;99214.50;383658;106;2072041;-70
2021/07/24 01:16:56;;;;;;;9.83;5.83;;;;;;;20.41;55.20;99213.98;359458;111;1962068;-70
2021/07/24 01:18:04;;;;;;;13.83;6.27;;;;;;;20.42;55.13;99220.28;366781;109;1961884;-71
2021/07/24 01:19:17;;;;;;;10.61;5.55;;;;;;;20.58;55.42;99213.64;396137;104;1986023;-70
2021/07/24 01:20:25;;;;;;;11.28;5.56;;;;;;;20.39;55.26;99215.37;302860;105;2319873;-72
2021/07/24 01:21:37;;;;;;;7.74;5.05;;;;;;;20.48;55.56;99215.59;395836;104;1987012;-72
2021/07/24 01:23:35;;;;;;;10.22;5.27;;;;;;;20.44;55.48;99207.11;390317;101;1987009;-69
2021/07/24 01:24:40;;;;;;;10.14;5.73;;;;;;;20.31;55.32;99216.77;384313;103;1960915;-70
2021/07/24 01:25:55;;;;;;;9.56;5.48;;;;;;;20.36;55.68;99215.94;391185;104;1985855;-70
2021/07/24 01:27:09;;;;;;;17.49;6.73;;;;;;;20.32;55.93;99212.09;390034;106;1986922;-69
2021/07/24 01:28:35;;;;;;;10.45;5.84;;;;;;;20.20;55.83;99213.25;326693;109;2029795;-69
2021/07/24 01:29:41;;;;;;;10.14;5.90;;;;;;;20.19;55.76;99211.62;354266;113;1963955;-68
2021/07/24 01:30:55;;;;;;;12.88;5.94;;;;;;;20.29;56.09;99213.48;348723;104;2895929;-70
2021/07/24 01:32:04;;;;;;;10.12;6.14;;;;;;;20.17;55.92;99213.00;376292;107;1961998;-67
2021/07/24 01:33:17;;;;;;;10.52;5.31;;;;;;;20.25;56.03;99217.91;389072;106;1985956;-69
2021/07/24 01:34:22;;;;;;;9.73;5.55;;;;;;;20.11;56.21;99214.10;360262;110;1963018;-69
2021/07/24 01:35:47;;;;;;;11.18;6.51;;;;;;;20.11;56.21;99222.33;328530;111;1964110;-69
2021/07/24 01:37:19;;;;;;;10.86;6.09;;;;;;;20.19;56.13;99216.27;416896;99;2079030;-70
2021/07/24 01:38:30;;;;;;;11.73;6.33;;;;;;;20.07;56.39;99221.27;397190;101;1964049;-70
2021/07/24 01:39:40;;;;;;;10.62;5.89;;;;;;;20.06;56.47;99219.60;394711;101;1960865;-72
2021/07/24 01:40:52;;;;;;;10.70;5.62;;;;;;;20.20;56.25;99213.25;396672;104;1986019;-69
2021/07/24 01:41:57;;;;;;;9.24;5.32;;;;;;;20.02;56.19;99216.61;373620;105;1963031;-70
2021/07/24 01:43:11;;;;;;;10.08;5.92;;;;;;;20.13;56.24;99212.72;395205;103;1985914;-71
2021/07/24 01:44:17;;;;;;;9.72;5.47;;;;;;;20.00;56.06;99216.06;321279;107;2127969;-70
2021/07/24 01:45:41;;;;;;;10.65;5.29;;;;;;;20.00;56.03;99210.58;373208;107;1963075;-69
2021/07/24 01:46:48;;;;;;;11.89;5.53;;;;;;;20.00;56.00;99210.58;376457;107;1961909;-70
2021/07/24 01:48:04;;;;;;;9.24;5.84;;;;;;;20.19;55.87;99219.00;393688;104;2072019;-69
2021/07/24 01:49:14;;;;;;;10.46;5.42;;;;;;;20.07;55.77;99216.59;381871;105;1961937;-71
2021/07/24 01:53:34;;;;;;;10.29;5.56;;;;;;;20.14;55.93;99217.13;394301;104;1986042;-70
2021/07/24 01:54:46;;;;;;;13.14;6.08;;;;;;;20.03;55.88;99215.52;375424;106;1961956;-70
2021/07/24 01:56:15;;;;;;;10.93;5.52;;;;;;;20.05;55.71;99213.30;375696;105;1962048;-70
2021/07/24 01:57:32;;;;;;;10.03;5.77;;;;;;;20.15;55.81;99209.71;394815;104;1985980;-69
2021/07/24 01:58:39;;;;;;;11.66;6.09;;;;;;;20.02;55.86;99210.31;346467;105;2429015;-69
2021/07/24 01:59:53;;;;;;;11.51;6.21;;;;;;;20.12;55.93;99207.53;397405;104;2071932;-70
2021/07/24 02:01:02;;;;;;;10.21;5.10;;;;;;;19.97;55.95;99211.14;327778;105;2072981;-70
2021/07/24 02:02:26;;;;;;;13.10;5.63;;;;;;;20.03;55.62;99217.42;347210;108;1962063;-70
2021/07/24 02:03:43;;;;;;;11.66;5.68;;;;;;;20.01;55.73;99214.98;369381;107;1961990;-69
2021/07/24 02:04:58;;;;;;;10.60;5.64;;;;;;;20.11;56.02;99214.10;381291;104;1986337;-71
2021/07/24 02:06:13;;;;;;;11.86;6.18;;;;;;;20.08;56.09;99212.73;363144;104;2463984;-69
2021/07/24 02:07:48;;;;;;;9.89;5.38;;;;;;;19.95;55.71;99213.33;355780;107;2957120;-69
2021/07/24 02:09:01;;;;;;;10.53;5.70;;;;;;;20.07;55.89;99213.84;389448;104;1985920;-69
2021/07/24 02:10:07;;;;;;;9.77;5.58;;;;;;;19.97;55.64;99219.36;372461;107;1961986;-69
2021/07/24 02:11:33;;;;;;;10.56;5.69;;;;;;;19.90;55.97;99216.93;368318;107;1961929;-70
2021/07/24 02:12:45;;;;;;;10.66;5.71;;;;;;;20.10;55.79;99216.03;388963;106;1986952;-70
2021/07/24 02:13:51;;;;;;;11.59;6.01;;;;;;;19.99;55.69;99215.24;340854;107;2574052;-70
2021/07/24 02:15:05;;;;;;;10.06;5.82;;;;;;;20.09;55.95;99213.58;387441;104;2072936;-70
2021/07/24 02:16:13;;;;;;;10.03;5.88;;;;;;;19.94;55.90;99209.77;341224;107;2503031;-68
2021/07/24 02:17:38;;;;;;;10.37;5.91;;;;;;;19.97;55.85;99208.40;369507;108;1964046;-69
2021/07/24 02:18:50;;;;;;;12.35;5.84;;;;;;;20.07;55.97;99205.63;396292;104;1987008;-70
2021/07/24 02:20:03;;;;;;;13.11;6.02;;;;;;;19.95;55.73;99211.44;376079;105;1962128;-71
2021/07/24 02:21:15;;;;;;;9.54;5.63;;;;;;;20.06;55.64;99209.48;397597;104;1987071;-70
2021/07/24 02:22:22;;;;;;;10.86;5.91;;;;;;;19.99;55.62;99212.50;375237;107;1961974;-70
2021/07/24 02:23:45;;;;;;;9.72;5.23;;;;;;;19.96;55.49;99212.25;372283;107;1964021;-70
2021/07/24 02:24:58;;;;;;;13.18;6.11;;;;;;;20.14;55.54;99216.31;388015;104;2858980;-71
2021/07/24 02:26:04;;;;;;;10.24;6.06;;;;;;;19.99;55.39;99212.50;353422;107;1961979;-69
2021/07/24 02:27:16;;;;;;;10.54;6.42;;;;;;;20.13;55.32;99214.65;393121;103;2072012;-71
2021/07/24 02:28:23;;;;;;;10.72;6.28;;;;;;;19.97;55.44;99214.70;374862;106;1964044;-70
2021/07/24 02:29:35;;;;;;;10.19;5.72;;;;;;;20.07;55.49;99213.84;376050;108;1986022;-69
2021/07/24 02:30:41;;;;;;;11.87;6.14;;;;;;;19.96;55.45;99217.73;355928;112;1962028;-71
2021/07/24 02:32:05;;;;;;;11.81;6.06;;;;;;;19.95;55.45;99214.17;313538;113;2355957;-70
2021/07/24 02:33:18;;;;;;;10.57;5.72;;;;;;;20.08;55.60;99214.66;393910;104;1964983;-69
2021/07/24 02:34:23;;;;;;;10.59;6.24;;;;;;;19.97;55.48;99220.17;378852;105;1961964;-69
2021/07/24 02:35:35;;;;;;;10.79;5.91;;;;;;;20.08;55.57;99214.66;401534;104;1987047;-71
2021/07/24 02:36:46;;;;;;;12.09;5.73;;;;;;;19.97;55.63;99208.40;375233;107;1962046;-69
2021/07/24 02:38:11;;;;;;;9.66;5.68;;;;;;;19.97;55.57;99219.36;325565;107;2807061;-69
2021/07/24 02:39:17;;;;;;;11.86;5.68;;;;;;;19.98;55.56;99218.28;372965;106;1961876;-69
2021/07/24 02:40:29;;;;;;;7.97;4.68;;;;;;;20.05;55.83;99213.30;394409;103;1988980;-70
2021/07/24 02:41:37;;;;;;;11.16;5.21;;;;;;;19.97;55.79;99216.63;372071;105;1961064;-69
2021/07/24 02:42:43;;;;;;;14.07;6.08;;;;;;;19.96;55.72;99220.47;371754;105;1961977;-71
2021/07/24 02:43:56;;;;;;;11.09;5.98;;;;;;;20.06;55.76;99217.70;356533;104;2644930;-70
2021/07/24 02:45:02;;;;;;;10.20;5.87;;;;;;;19.99;55.87;99215.24;344160;107;1963932;-70
2021/07/24 02:46:19;;;;;;;10.62;6.08;;;;;;;20.13;55.52;99220.13;389846;104;2070948;-68
2021/07/24 02:47:22;;;;;;;11.17;6.17;;;;;;;20.00;55.72;99218.80;361312;106;1968942;-69
2021/07/24 02:48:47;;;;;;;11.46;6.10;;;;;;;20.01;55.82;99222.39;335546;106;2361024;-69
2021/07/24 02:49:59;;;;;;;10.09;6.02;;;;;;;20.13;55.86;99220.13;396644;101;2070985;-71
2021/07/24 02:51:04;;;;;;;10.52;6.27;;;;;;;19.99;55.82;99228.95;363600;109;1968988;-71
2021/07/24 02:52:17;;;;;;;10.57;5.33;;;;;;;20.10;55.92;99224.25;381505;106;2879973;-70
2021/07/24 02:53:23;;;;;;;11.04;5.53;;;;;;;19.97;55.93;99219.36;325419;109;2026987;-71
2021/07/24 02:54:28;;;;;;;14.16;5.98;;;;;;;19.96;55.97;99224.03;370576;109;1961960;-72
2021/07/24 02:55:40;;;;;;;10.09;6.08;;;;;;;20.07;55.98;99224.81;400630;104;1986019;-73
2021/07/24 02:56:47;;;;;;;10.99;5.59;;;;;;;19.97;55.85;99227.59;369764;105;2952005;-71
2021/07/24 02:58:00;;;;;;;9.23;5.92;;;;;;;20.07;56.21;99224.00;386779;106;2072850;-71
2021/07/24 02:59:05;;;;;;;9.13;5.24;;;;;;;19.97;56.15;99228.41;367443;108;1962065;-71
2021/07/24 03:00:29;;;;;;;11.07;6.61;;;;;;;19.90;56.15;99222.41;334263;109;1963990;-70
2021/07/24 03:01:34;;;;;;;11.32;6.23;;;;;;;19.90;56.16;99235.27;346488;109;1961931;-71
2021/07/24 03:02:46;;;;;;;11.85;5.93;;;;;;;20.07;56.28;99229.48;391118;106;1986031;-69
2021/07/24 03:03:51;;;;;;;11.42;6.06;;;;;;;19.95;56.29;99233.36;367735;108;1963025;-70
2021/07/24 03:04:57;;;;;;;12.12;6.32;;;;;;;19.95;56.21;99227.03;364524;109;1962074;-70
2021/07/24 03:06:03;;;;;;;12.27;5.89;;;;;;;19.92;56.46;99233.08;362883;112;1961994;-70
2021/07/24 03:07:15;;;;;;;9.67;5.91;;;;;;;20.06;56.36;99228.67;386133;104;1964921;-70
2021/07/24 03:08:21;;;;;;;9.65;5.66;;;;;;;19.95;56.20;99227.03;373429;107;1961950;-70
2021/07/24 03:09:26;;;;;;;9.10;5.56;;;;;;;19.96;56.15;99228.70;374359;107;1961973;-70
2021/07/24 03:10:39;;;;;;;11.24;6.88;;;;;;;20.07;56.51;99227.56;394722;103;1985923;-72
2021/07/24 03:11:46;;;;;;;12.72;6.36;;;;;;;19.95;56.49;99229.78;324022;107;2893041;-71
2021/07/24 03:12:51;;;;;;;10.33;6.13;;;;;;;19.94;56.37;99226.22;371439;107;1961926;-71
2021/07/24 03:13:57;;;;;;;11.80;6.88;;;;;;;19.92;56.53;99233.08;377207;106;1962063;-70
2021/07/24 03:15:03;;;;;;;10.22;5.18;;;;;;;19.92;56.62;99227.59;375091;107;1962023;-71
2021/07/24 03:16:16;;;;;;;8.67;5.74;;;;;;;20.04;56.66;99227.31;343013;106;2814017;-71
2021/07/24 03:17:23;;;;;;;12.69;6.00;;;;;;;19.93;56.62;99230.08;348357;107;1962967;-70
2021/07/24 03:18:30;;;;;;;22.39;6.77;;;;;;;19.91;56.69;99231.45;371615;109;1962013;-71
2021/07/24 03:19:36;;;;;;;10.92;5.83;;;;;;;19.93;56.59;99232.81;368230;109;1962073;-71
2021/07/24 03:20:48;;;;;;;11.44;6.44;;;;;;;20.04;56.68;99236.34;390578;104;2072011;-70
2021/07/24 03:21:53;;;;;;;10.65;5.47;;;;;;;19.92;56.69;99244.05;375190;107;1962012;-69
2021/07/24 03:23:00;;;;;;;10.60;6.34;;;;;;;19.94;56.67;99234.45;374868;107;1961951;-72
2021/07/24 03:24:12;;;;;;;11.49;6.61;;;;;;;20.06;56.66;99230.56;357244;103;2592949;-71
2021/07/24 03:25:20;;;;;;;10.52;6.37;;;;;;;19.94;56.80;99239.93;343066;106;1961875;-69
2021/07/24 03:26:25;;;;;;;10.97;5.68;;;;;;;19.95;56.69;99238.84;370173;107;1965968;-70
2021/07/24 03:27:30;;;;;;;11.93;6.24;;;;;;;19.94;56.55;99233.63;371752;109;1962054;-72
2021/07/24 03:28:43;;;;;;;12.63;6.05;;;;;;;20.07;56.62;99234.97;339402;106;2872051;-70
2021/07/24 03:29:49;;;;;;;10.04;5.91;;;;;;;19.97;56.48;99236.63;370470;107;1960867;-70
2021/07/24 03:31:01;;;;;;;9.39;5.65;;;;;;;20.10;56.54;99245.38;394683;104;1987030;-70
2021/07/24 03:32:07;;;;;;;9.32;5.34;;;;;;;20.03;56.39;99247.58;377268;105;1964117;-70
2021/07/24 03:33:19;;;;;;;10.68;6.37;;;;;;;20.16;56.45;99241.50;402897;104;1961969;-69
2021/07/24 03:34:24;;;;;;;10.66;5.76;;;;;;;20.04;56.39;99239.09;377990;105;1969963;-70
2021/07/24 03:35:48;;;;;;;11.27;5.74;;;;;;;20.07;56.21;99243.20;372751;107;1962099;-71
2021/07/24 03:37:00;;;;;;;9.31;5.76;;;;;;;20.16;56.23;99239.61;406983;101;1987007;-70
2021/07/24 03:38:05;;;;;;;9.50;5.71;;;;;;;20.07;56.17;99248.68;383241;105;1961980;-71
2021/07/24 03:39:10;;;;;;;10.44;6.49;;;;;;;20.09;56.26;99249.23;382430;104;1962007;-71
2021/07/24 03:40:22;;;;;;;13.08;6.59;;;;;;;20.29;55.94;99238.17;379914;108;1986037;-70
2021/07/24 03:41:28;;;;;;;12.72;6.42;;;;;;;20.17;55.96;99245.91;357423;112;1962001;-69
2021/07/24 03:42:40;;;;;;;10.71;6.26;;;;;;;20.21;55.94;99242.31;376585;104;2417013;-70
2021/07/24 03:43:45;;;;;;;9.99;5.76;;;;;;;20.13;55.91;99247.55;352421;105;1962018;-71
2021/07/24 03:45:10;;;;;;;12.88;6.32;;;;;;;20.12;55.94;99245.92;381127;105;1961906;-71
2021/07/24 03:46:25;;;;;;;13.21;5.97;;;;;;;20.28;55.81;99238.47;391499;104;1985919;-71
2021/07/24 03:47:32;;;;;;;11.12;5.89;;;;;;;20.25;55.51;99245.33;373753;107;1962030;-70
2021/07/24 03:48:45;;;;;;;10.97;6.37;;;;;;;20.38;55.34;99241.98;388131;106;1985796;-70
2021/07/24 03:49:51;;;;;;;9.87;5.58;;;;;;;20.29;55.47;99245.58;332588;110;2508005;-71
2021/07/24 03:51:15;;;;;;;9.96;5.64;;;;;;;20.34;55.17;99249.13;360081;111;1962034;-69
2021/07/24 03:52:27;;;;;;;10.63;6.41;;;;;;;20.46;54.78;99248.00;399117;104;1962044;-71
2021/07/24 03:53:32;;;;;;;10.66;5.62;;;;;;;20.35;54.74;99245.30;370868;107;1970905;-71
2021/07/24 03:54:37;;;;;;;12.37;6.43;;;;;;;20.42;54.67;99244.98;369098;106;1961902;-70
2021/07/24 03:55:51;;;;;;;10.20;6.61;;;;;;;20.46;54.69;99246.06;396548;103;1987082;-71
2021/07/24 03:56:58;;;;;;;11.77;7.06;;;;;;;20.31;54.72;99252.42;374900;107;1963913;-71
2021/07/24 03:58:10;;;;;;;11.48;5.83;;;;;;;20.46;54.79;99254.30;393435;104;1986914;-72
2021/07/24 03:59:16;;;;;;;10.02;6.61;;;;;;;20.34;54.84;99248.30;379188;107;1961999;-71
2021/07/24 04:01:58;;;;;;;10.85;6.18;;;;;;;20.52;54.56;99253.16;394590;104;1987073;-71
2021/07/24 04:03:04;;;;;;;12.37;6.39;;;;;;;20.43;54.29;99247.45;374383;107;1961956;-70
2021/07/24 04:04:16;;;;;;;9.68;5.79;;;;;;;20.54;54.19;99256.48;394252;104;1985989;-71
2021/07/24 04:05:27;;;;;;;12.80;6.33;;;;;;;20.46;54.03;99253.48;368381;108;1961815;-71
2021/07/24 04:06:55;;;;;;;10.59;6.73;;;;;;;20.47;54.25;99252.38;367543;108;1961819;-71
2021/07/24 04:08:09;;;;;;;10.58;6.01;;;;;;;20.60;54.24;99260.84;398149;103;1986064;-70
2021/07/24 04:09:15;;;;;;;10.30;5.93;;;;;;;20.49;54.13;99255.66;372267;107;1963808;-69
2021/07/24 04:10:21;;;;;;;11.24;6.53;;;;;;;20.57;54.13;99258.66;368910;107;1961912;-70
2021/07/24 04:11:35;;;;;;;11.13;5.79;;;;;;;20.70;54.13;99256.42;330883;108;2869954;-71
2021/07/24 04:12:41;;;;;;;11.33;5.96;;;;;;;20.61;54.17;99257.02;360464;110;1963015;-70
2021/07/24 04:13:47;;;;;;;11.75;5.51;;;;;;;20.63;53.87;99253.97;360677;111;1962996;-71
2021/07/24 04:14:54;;;;;;;11.81;5.79;;;;;;;20.67;53.77;99252.31;356886;111;1961920;-71
2021/07/24 04:16:06;;;;;;;12.09;6.43;;;;;;;20.82;53.58;99251.39;394964;106;1987072;-72
2021/07/24 04:17:12;;;;;;;10.73;6.37;;;;;;;20.68;53.56;99261.36;371315;107;1962011;-71
2021/07/24 04:18:26;;;;;;;13.62;7.36;;;;;;;20.84;53.64;99257.42;395949;104;1985987;-71
2021/07/24 04:19:45;;;;;;;9.79;5.74;;;;;;;20.90;53.40;99252.72;399985;104;1985930;-72
2021/07/24 04:21:08;;;;;;;11.18;6.48;;;;;;;20.77;53.60;99252.27;374672;107;1961997;-70
2021/07/24 04:22:14;;;;;;;12.13;6.04;;;;;;;20.81;53.57;99256.06;369897;109;1962049;-71
2021/07/24 04:23:26;;;;;;;10.54;6.53;;;;;;;20.94;53.58;99257.36;362835;104;2562879;-70
2021/07/24 04:24:32;;;;;;;11.86;6.55;;;;;;;20.85;53.38;99254.41;368124;107;1962033;-72
2021/07/24 04:25:44;;;;;;;10.72;6.10;;;;;;;21.01;53.39;99252.38;394536;104;1987149;-70
2021/07/24 04:26:50;;;;;;;10.58;6.52;;;;;;;20.95;53.10;99249.94;374750;107;1963939;-70
2021/07/24 04:27:55;;;;;;;8.87;5.63;;;;;;;20.95;53.37;99250.75;375705;105;1962001;-70
2021/07/24 04:29:06;;;;;;;10.21;6.08;;;;;;;21.00;53.32;99250.72;357952;106;1962094;-69
2021/07/24 04:30:15;;;;;;;11.93;5.93;;;;;;;21.17;53.48;99255.84;391456;104;1987071;-70
2021/07/24 04:31:21;;;;;;;15.68;6.34;;;;;;;21.08;53.16;99252.05;367556;109;1961908;-71
2021/07/24 04:32:34;;;;;;;11.36;6.02;;;;;;;21.24;53.23;99250.01;391954;104;1986973;-69
2021/07/24 04:33:40;;;;;;;11.16;5.87;;;;;;;21.17;52.85;99246.76;377196;105;1962953;-71
2021/07/24 04:35:04;;;;;;;11.68;5.42;;;;;;;21.19;52.79;99250.86;323534;107;2369889;-70
2021/07/24 04:36:13;;;;;;;10.89;6.24;;;;;;;21.23;52.78;99253.87;361840;109;1964976;-69
2021/07/24 04:37:25;;;;;;;10.32;5.68;;;;;;;21.34;52.47;99255.42;398946;104;1985975;-71
2021/07/24 04:38:30;;;;;;;12.63;6.73;;;;;;;21.25;52.52;99257.98;378561;105;1963005;-71
2021/07/24 04:39:43;;;;;;;9.60;6.01;;;;;;;21.39;52.52;99249.11;394801;104;1988088;-70
2021/07/24 04:40:49;;;;;;;13.92;6.36;;;;;;;21.29;52.61;99250.78;336287;107;2508946;-69
2021/07/24 04:42:13;;;;;;;12.01;6.57;;;;;;;21.35;52.62;99253.50;368957;107;1962065;-71
2021/07/24 04:43:25;;;;;;;12.28;6.14;;;;;;;21.49;52.79;99255.34;393215;103;1966054;-70
2021/07/24 04:44:30;;;;;;;14.83;6.26;;;;;;;21.41;52.61;99255.14;371881;105;1962016;-71
2021/07/24 04:45:44;;;;;;;13.01;6.59;;;;;;;21.56;52.32;99256.92;393547;103;1988024;-71
2021/07/24 04:46:50;;;;;;;13.49;6.68;;;;;;;21.48;52.40;99261.11;359586;105;2865001;-70
2021/07/24 04:48:14;;;;;;;12.41;6.61;;;;;;;21.07;52.56;99190.81;373379;105;1962004;-71
2021/07/24 04:49:26;;;;;;;14.86;6.98;;;;;;;21.66;52.45;99257.65;396060;104;2076947;-70
2021/07/24 04:50:34;;;;;;;11.38;6.37;;;;;;;21.57;52.30;99259.40;373192;107;1961946;-71
2021/07/24 04:51:47;;;;;;;11.37;6.41;;;;;;;21.73;52.13;99254.58;367883;104;1962023;-71
2021/07/24 04:52:52;;;;;;;14.39;6.45;;;;;;;21.62;52.13;99259.35;361001;107;1969012;-71
2021/07/24 04:54:16;;;;;;;11.28;6.92;;;;;;;21.66;51.68;99259.58;376432;107;1962087;-69
2021/07/24 04:55:29;;;;;;;20.95;6.96;;;;;;;21.85;51.42;99252.23;395936;104;1961934;-71
2021/07/24 04:56:37;;;;;;;10.37;5.96;;;;;;;21.76;51.29;99253.18;373131;107;1968999;-71
2021/07/24 04:57:51;;;;;;;12.49;6.33;;;;;;;21.91;50.99;99255.75;393849;104;1985998;-71
2021/07/24 04:59:05;;;;;;;13.72;6.96;;;;;;;21.91;51.29;99262.09;391423;104;1961881;-71
2021/07/24 05:00:30;;;;;;;13.20;6.47;;;;;;;21.81;51.52;99261.37;375020;107;1969024;-70
2021/07/24 05:01:36;;;;;;;10.67;6.18;;;;;;;21.90;51.42;99265.94;374713;107;1961966;-71
2021/07/24 05:02:48;;;;;;;17.19;7.59;;;;;;;22.04;51.33;99262.50;338622;103;2206950;-70
2021/07/24 05:04:03;;;;;;;14.69;6.63;;;;;;;22.10;51.49;99262.17;393439;104;1985908;-71
2021/07/24 05:05:26;;;;;;;14.87;6.73;;;;;;;22.08;51.32;99264.38;368561;109;1961974;-70
2021/07/24 05:06:35;;;;;;;14.32;6.92;;;;;;;22.11;51.48;99262.98;372500;107;1961989;-71
2021/07/24 05:07:41;;;;;;;15.99;6.64;;;;;;;22.15;51.19;99266.80;370500;107;1962005;-71
2021/07/24 05:08:53;;;;;;;12.38;7.14;;;;;;;22.33;51.21;99267.98;390727;104;2072022;-72
2021/07/24 05:09:59;;;;;;;11.93;6.38;;;;;;;22.26;51.12;99267.53;372657;106;1961939;-72
2021/07/24 05:11:10;;;;;;;10.41;7.28;;;;;;;22.30;51.12;99263.88;398984;104;1986031;-71
2021/07/24 05:12:16;;;;;;;11.64;6.54;;;;;;;22.19;50.88;99267.05;372301;107;1962035;-71
2021/07/24 05:13:39;;;;;;;12.35;6.53;;;;;;;22.25;50.39;99265.88;374564;106;1965040;-71
2021/07/24 05:14:51;;;;;;;11.68;6.78;;;;;;;22.43;50.07;99261.55;396987;104;1989001;-70
2021/07/24 05:15:57;;;;;;;14.24;7.12;;;;;;;22.34;49.86;99270.45;370785;108;1962008;-70
2021/07/24 05:17:11;;;;;;;12.88;7.29;;;;;;;22.43;49.63;99267.05;401115;103;2073037;-72
2021/07/24 05:18:17;;;;;;;12.42;6.93;;;;;;;22.30;49.96;99272.13;355569;107;1961983;-70
2021/07/24 05:19:42;;;;;;;12.96;6.55;;;;;;;22.34;49.81;99264.95;367787;109;1961949;-70
2021/07/24 05:20:47;;;;;;;11.59;6.34;;;;;;;22.38;49.82;99265.98;358685;112;1962073;-70
2021/07/24 05:21:59;;;;;;;11.28;6.59;;;;;;;22.61;49.72;99260.76;395192;103;1985944;-70
2021/07/24 05:23:04;;;;;;;11.13;6.71;;;;;;;22.56;49.63;99256.13;371619;105;1963111;-71
2021/07/24 05:24:18;;;;;;;16.38;7.47;;;;;;;22.70;49.54;99258.16;332112;104;2313881;-72
2021/07/24 05:25:24;;;;;;;13.04;7.23;;;;;;;22.66;49.59;99268.14;350671;105;1962028;-70
2021/07/24 05:26:48;;;;;;;12.07;7.57;;;;;;;22.67;49.23;99259.56;353456;106;1962984;-70
2021/07/24 05:27:53;;;;;;;10.21;6.45;;;;;;;22.67;48.65;99261.50;356723;105;1964019;-71
2021/07/24 05:28:59;;;;;;;11.86;6.40;;;;;;;22.70;49.07;99258.16;350636;105;1963963;-71
2021/07/24 05:30:12;;;;;;;17.64;7.89;;;;;;;22.76;49.12;99256.98;384355;106;2072039;-72
2021/07/24 05:31:20;;;;;;;12.10;6.66;;;;;;;22.67;49.33;99259.56;369592;108;1962069;-70